Pagina principale
METAR-TAF:

METAR-TAF

Aeroporti :

Amman, Giordania

latitudine: 31-59N, longitudine: 035-59E, altezza: 767 m

Osservazione

Il bollettino è stato emesso 52 minuti fa, alle 22:00 UTC
Vento 6 kt da ovest
Temperature 22°C
Umidità 57%
Pressione 1013 hPa
Visibilità: 5000 m
foschia

METAR: OJAM 162200Z 26006KT 5000 HZ NSC 22/13 Q1013 NOSIG

Ora: 01:52 (22:52 UTC)

Previsione

Il bollettino è stato emesso 5 ore e 52 minuti fa, alle 17:00 UTC
Previsione valida dal 16 alle 18 UTC al 17 alle 24 UTC
Vento 10 kt da ovest/nord-ovest
Visibilità: 5000 m
Poco nuvoloso ad un'altezza di 3000 ft
foschia

TAF: OJAM 161700Z 1618/1724 30010KT 5000 HZ FEW030

Osservazioni e previsioni meteorologiche di più di 4000 aeroporti (messaggi METAR e TAF).

Le stazioni disponibili sono rappresentate dai dischi gialli e rossi sulla carta.

Puntare il mouse per vedere il nome della stazione.

Clicca sopra per visualizzare le osservazioni e previsioni meteorologiche.

Per cambiare la mappa : fare clic sui pulsanti verdi con una croce nera per ingrandire, il pulsante verde con un trattino per diminuire, o sulla freccia verde per le mappe adiacenti.


METAR-TAF: